sensor_id;sensor_type;location;lat;lon;timestamp;temperature;humidity
65038;DHT22;51605;47.040;15.294;2023-07-08T00:00:14;23.80;49.90
65038;DHT22;51605;47.040;15.294;2023-07-08T00:02:41;23.80;50.00
65038;DHT22;51605;47.040;15.294;2023-07-08T00:05:12;23.80;49.90
65038;DHT22;51605;47.040;15.294;2023-07-08T00:07:38;23.80;50.80
65038;DHT22;51605;47.040;15.294;2023-07-08T00:10:16;23.80;49.90
65038;DHT22;51605;47.040;15.294;2023-07-08T00:12:44;23.80;49.90
65038;DHT22;51605;47.040;15.294;2023-07-08T00:15:11;23.80;49.90
65038;DHT22;51605;47.040;15.294;2023-07-08T00:17:37;23.80;49.90
65038;DHT22;51605;47.040;15.294;2023-07-08T00:20:19;23.80;49.90
65038;DHT22;51605;47.040;15.294;2023-07-08T00:22:46;23.80;49.90
65038;DHT22;51605;47.040;15.294;2023-07-08T00:25:18;23.80;49.90
65038;DHT22;51605;47.040;15.294;2023-07-08T00:27:48;23.80;50.00
65038;DHT22;51605;47.040;15.294;2023-07-08T00:32:48;23.80;50.00
65038;DHT22;51605;47.040;15.294;2023-07-08T00:37:54;23.80;49.90
65038;DHT22;51605;47.040;15.294;2023-07-08T00:40:31;23.80;50.00
65038;DHT22;51605;47.040;15.294;2023-07-08T00:42:59;23.80;50.00
65038;DHT22;51605;47.040;15.294;2023-07-08T00:48:22;23.80;50.00
65038;DHT22;51605;47.040;15.294;2023-07-08T00:50:49;23.80;50.00
65038;DHT22;51605;47.040;15.294;2023-07-08T00:58:48;23.80;50.00
65038;DHT22;51605;47.040;15.294;2023-07-08T01:01:14;23.80;50.00
65038;DHT22;51605;47.040;15.294;2023-07-08T01:03:53;23.80;50.00
65038;DHT22;51605;47.040;15.294;2023-07-08T01:06:21;23.80;50.00
65038;DHT22;51605;47.040;15.294;2023-07-08T01:08:57;23.80;50.00
65038;DHT22;51605;47.040;15.294;2023-07-08T01:11:24;23.80;50.10
65038;DHT22;51605;47.040;15.294;2023-07-08T01:13:51;23.80;50.00
65038;DHT22;51605;47.040;15.294;2023-07-08T01:16:17;23.80;50.00
65038;DHT22;51605;47.040;15.294;2023-07-08T01:18:43;23.80;50.00
65038;DHT22;51605;47.040;15.294;2023-07-08T01:21:38;23.80;50.00
65038;DHT22;51605;47.040;15.294;2023-07-08T01:24:07;23.80;50.10
65038;DHT22;51605;47.040;15.294;2023-07-08T01:26:37;23.80;49.90
65038;DHT22;51605;47.040;15.294;2023-07-08T01:29:04;23.80;50.00
65038;DHT22;51605;47.040;15.294;2023-07-08T01:31:29;23.80;50.00
65038;DHT22;51605;47.040;15.294;2023-07-08T01:33:55;23.80;50.00
65038;DHT22;51605;47.040;15.294;2023-07-08T01:36:21;23.80;50.00
65038;DHT22;51605;47.040;15.294;2023-07-08T01:38:47;23.80;50.00
65038;DHT22;51605;47.040;15.294;2023-07-08T01:41:15;23.80;50.00
65038;DHT22;51605;47.040;15.294;2023-07-08T01:43:41;23.80;49.90
65038;DHT22;51605;47.040;15.294;2023-07-08T01:46:19;23.80;49.90
65038;DHT22;51605;47.040;15.294;2023-07-08T01:48:52;23.80;50.00
65038;DHT22;51605;47.040;15.294;2023-07-08T01:51:18;23.80;50.00
65038;DHT22;51605;47.040;15.294;2023-07-08T01:53:43;23.80;49.90
65038;DHT22;51605;47.040;15.294;2023-07-08T01:56:12;23.80;50.00
65038;DHT22;51605;47.040;15.294;2023-07-08T01:58:38;23.80;49.90
65038;DHT22;51605;47.040;15.294;2023-07-08T02:01:04;23.80;49.90
65038;DHT22;51605;47.040;15.294;2023-07-08T02:03:30;23.80;50.00
65038;DHT22;51605;47.040;15.294;2023-07-08T02:05:56;23.80;50.00
65038;DHT22;51605;47.040;15.294;2023-07-08T02:08:22;23.80;49.80
65038;DHT22;51605;47.040;15.294;2023-07-08T02:10:51;23.80;49.90
65038;DHT22;51605;47.040;15.294;2023-07-08T02:13:17;23.80;49.90
65038;DHT22;51605;47.040;15.294;2023-07-08T02:15:43;23.80;50.00
65038;DHT22;51605;47.040;15.294;2023-07-08T02:18:09;23.80;50.00
65038;DHT22;51605;47.040;15.294;2023-07-08T02:20:34;23.80;50.00
65038;DHT22;51605;47.040;15.294;2023-07-08T02:23:00;23.80;50.00
65038;DHT22;51605;47.040;15.294;2023-07-08T02:25:26;23.80;50.00
65038;DHT22;51605;47.040;15.294;2023-07-08T02:27:52;23.80;50.00
65038;DHT22;51605;47.040;15.294;2023-07-08T02:30:23;23.80;49.90
65038;DHT22;51605;47.040;15.294;2023-07-08T02:32:49;23.80;50.00
65038;DHT22;51605;47.040;15.294;2023-07-08T02:35:23;23.80;50.00
65038;DHT22;51605;47.040;15.294;2023-07-08T02:37:49;23.80;50.00
65038;DHT22;51605;47.040;15.294;2023-07-08T02:40:15;23.80;50.00
65038;DHT22;51605;47.040;15.294;2023-07-08T02:42:40;23.80;50.10
65038;DHT22;51605;47.040;15.294;2023-07-08T02:45:06;23.80;50.00
65038;DHT22;51605;47.040;15.294;2023-07-08T02:47:33;23.80;50.00
65038;DHT22;51605;47.040;15.294;2023-07-08T02:49:59;23.80;50.00
65038;DHT22;51605;47.040;15.294;2023-07-08T02:52:24;23.80;50.00
65038;DHT22;51605;47.040;15.294;2023-07-08T02:54:50;23.80;50.00
65038;DHT22;51605;47.040;15.294;2023-07-08T02:57:15;23.80;49.90
65038;DHT22;51605;47.040;15.294;2023-07-08T02:59:41;23.80;50.00
65038;DHT22;51605;47.040;15.294;2023-07-08T03:02:06;23.80;50.00
65038;DHT22;51605;47.040;15.294;2023-07-08T03:04:32;23.80;50.00
65038;DHT22;51605;47.040;15.294;2023-07-08T03:06:58;23.80;50.00
65038;DHT22;51605;47.040;15.294;2023-07-08T03:09:24;23.80;50.00
65038;DHT22;51605;47.040;15.294;2023-07-08T03:11:50;23.80;50.00
65038;DHT22;51605;47.040;15.294;2023-07-08T03:14:15;23.80;50.00
65038;DHT22;51605;47.040;15.294;2023-07-08T03:16:41;23.80;50.00
65038;DHT22;51605;47.040;15.294;2023-07-08T03:19:09;23.80;50.00
65038;DHT22;51605;47.040;15.294;2023-07-08T03:21:35;23.80;50.00
65038;DHT22;51605;47.040;15.294;2023-07-08T03:24:01;23.80;50.00
65038;DHT22;51605;47.040;15.294;2023-07-08T03:26:27;23.80;50.10
65038;DHT22;51605;47.040;15.294;2023-07-08T03:28:53;23.80;50.10
65038;DHT22;51605;47.040;15.294;2023-07-08T03:31:19;23.80;50.00
65038;DHT22;51605;47.040;15.294;2023-07-08T03:33:45;23.80;50.00
65038;DHT22;51605;47.040;15.294;2023-07-08T03:36:16;23.80;50.00
65038;DHT22;51605;47.040;15.294;2023-07-08T03:38:49;23.80;51.00
65038;DHT22;51605;47.040;15.294;2023-07-08T03:41:15;23.80;50.00
65038;DHT22;51605;47.040;15.294;2023-07-08T03:43:41;23.80;50.00
65038;DHT22;51605;47.040;15.294;2023-07-08T03:46:11;23.80;50.10
65038;DHT22;51605;47.040;15.294;2023-07-08T03:48:38;23.70;50.00
65038;DHT22;51605;47.040;15.294;2023-07-08T03:51:04;23.80;50.10
65038;DHT22;51605;47.040;15.294;2023-07-08T03:53:30;23.80;50.00
65038;DHT22;51605;47.040;15.294;2023-07-08T03:55:55;23.80;50.00
65038;DHT22;51605;47.040;15.294;2023-07-08T03:58:21;23.80;50.00
65038;DHT22;51605;47.040;15.294;2023-07-08T04:00:46;23.80;50.00
65038;DHT22;51605;47.040;15.294;2023-07-08T04:03:12;23.80;50.10
65038;DHT22;51605;47.040;15.294;2023-07-08T04:05:38;23.80;50.00
65038;DHT22;51605;47.040;15.294;2023-07-08T04:08:04;23.80;50.00
65038;DHT22;51605;47.040;15.294;2023-07-08T04:10:29;23.80;50.00
65038;DHT22;51605;47.040;15.294;2023-07-08T04:12:55;23.80;50.00
65038;DHT22;51605;47.040;15.294;2023-07-08T04:15:20;23.80;50.00
65038;DHT22;51605;47.040;15.294;2023-07-08T04:17:51;23.80;50.00
65038;DHT22;51605;47.040;15.294;2023-07-08T04:20:18;23.80;50.00
65038;DHT22;51605;47.040;15.294;2023-07-08T04:22:45;23.80;50.00
65038;DHT22;51605;47.040;15.294;2023-07-08T04:25:12;23.80;50.00
65038;DHT22;51605;47.040;15.294;2023-07-08T04:27:38;23.80;50.00
65038;DHT22;51605;47.040;15.294;2023-07-08T04:30:04;23.80;50.00
65038;DHT22;51605;47.040;15.294;2023-07-08T04:32:30;23.80;49.80
65038;DHT22;51605;47.040;15.294;2023-07-08T04:34:56;23.80;50.00
65038;DHT22;51605;47.040;15.294;2023-07-08T04:37:21;23.70;50.00
65038;DHT22;51605;47.040;15.294;2023-07-08T04:39:47;23.70;50.00
65038;DHT22;51605;47.040;15.294;2023-07-08T04:42:14;23.70;50.10
65038;DHT22;51605;47.040;15.294;2023-07-08T04:44:41;23.70;50.10
65038;DHT22;51605;47.040;15.294;2023-07-08T04:47:07;23.70;50.10
65038;DHT22;51605;47.040;15.294;2023-07-08T04:49:34;23.70;50.10
65038;DHT22;51605;47.040;15.294;2023-07-08T04:52:00;23.70;50.20
65038;DHT22;51605;47.040;15.294;2023-07-08T04:54:27;23.80;50.00
65038;DHT22;51605;47.040;15.294;2023-07-08T04:56:53;23.70;50.00
65038;DHT22;51605;47.040;15.294;2023-07-08T04:59:22;23.80;50.00
65038;DHT22;51605;47.040;15.294;2023-07-08T05:01:48;23.70;50.00
65038;DHT22;51605;47.040;15.294;2023-07-08T05:04:15;23.70;50.10
65038;DHT22;51605;47.040;15.294;2023-07-08T05:06:41;23.70;50.10
65038;DHT22;51605;47.040;15.294;2023-07-08T05:09:07;23.70;50.10
65038;DHT22;51605;47.040;15.294;2023-07-08T05:11:34;23.70;50.10
65038;DHT22;51605;47.040;15.294;2023-07-08T05:14:00;23.70;50.20
65038;DHT22;51605;47.040;15.294;2023-07-08T05:16:26;23.70;50.20
65038;DHT22;51605;47.040;15.294;2023-07-08T05:18:51;23.70;50.20
65038;DHT22;51605;47.040;15.294;2023-07-08T05:21:19;23.70;50.20
65038;DHT22;51605;47.040;15.294;2023-07-08T05:23:45;23.70;50.20
65038;DHT22;51605;47.040;15.294;2023-07-08T05:26:11;23.70;50.20
65038;DHT22;51605;47.040;15.294;2023-07-08T05:28:37;23.70;50.20
65038;DHT22;51605;47.040;15.294;2023-07-08T05:31:02;23.70;50.30
65038;DHT22;51605;47.040;15.294;2023-07-08T05:33:30;23.70;50.20
65038;DHT22;51605;47.040;15.294;2023-07-08T05:35:56;23.70;50.30
65038;DHT22;51605;47.040;15.294;2023-07-08T05:38:23;23.70;50.20
65038;DHT22;51605;47.040;15.294;2023-07-08T05:40:49;23.70;50.30
65038;DHT22;51605;47.040;15.294;2023-07-08T05:43:16;23.70;50.20
65038;DHT22;51605;47.040;15.294;2023-07-08T05:45:41;23.70;50.00
65038;DHT22;51605;47.040;15.294;2023-07-08T05:48:07;23.70;50.10
65038;DHT22;51605;47.040;15.294;2023-07-08T05:50:33;23.70;50.10
65038;DHT22;51605;47.040;15.294;2023-07-08T05:52:58;23.70;50.30
65038;DHT22;51605;47.040;15.294;2023-07-08T05:55:24;23.70;50.20
65038;DHT22;51605;47.040;15.294;2023-07-08T05:57:49;23.70;50.20
65038;DHT22;51605;47.040;15.294;2023-07-08T06:00:15;23.70;50.20
65038;DHT22;51605;47.040;15.294;2023-07-08T06:02:41;23.70;50.20
65038;DHT22;51605;47.040;15.294;2023-07-08T06:05:07;23.70;50.20
65038;DHT22;51605;47.040;15.294;2023-07-08T06:07:32;23.70;50.20
65038;DHT22;51605;47.040;15.294;2023-07-08T06:09:58;23.70;50.20
65038;DHT22;51605;47.040;15.294;2023-07-08T06:12:25;23.70;50.30
65038;DHT22;51605;47.040;15.294;2023-07-08T06:14:51;23.70;50.10
65038;DHT22;51605;47.040;15.294;2023-07-08T06:17:17;23.80;50.10
65038;DHT22;51605;47.040;15.294;2023-07-08T06:19:43;23.80;50.10
65038;DHT22;51605;47.040;15.294;2023-07-08T06:22:09;23.80;50.10
65038;DHT22;51605;47.040;15.294;2023-07-08T06:24:35;23.80;50.00
65038;DHT22;51605;47.040;15.294;2023-07-08T06:27:04;23.80;50.00
65038;DHT22;51605;47.040;15.294;2023-07-08T06:29:29;23.80;49.90
65038;DHT22;51605;47.040;15.294;2023-07-08T06:31:55;23.80;49.90
65038;DHT22;51605;47.040;15.294;2023-07-08T06:34:21;23.80;50.00
65038;DHT22;51605;47.040;15.294;2023-07-08T06:36:49;23.80;50.10
65038;DHT22;51605;47.040;15.294;2023-07-08T06:39:14;23.80;50.00
65038;DHT22;51605;47.040;15.294;2023-07-08T06:41:40;23.80;50.00
65038;DHT22;51605;47.040;15.294;2023-07-08T06:44:06;23.80;50.10
65038;DHT22;51605;47.040;15.294;2023-07-08T06:46:31;23.80;50.00
65038;DHT22;51605;47.040;15.294;2023-07-08T06:48:57;23.80;50.10
65038;DHT22;51605;47.040;15.294;2023-07-08T06:51:23;23.70;50.00
65038;DHT22;51605;47.040;15.294;2023-07-08T06:53:48;23.70;50.00
65038;DHT22;51605;47.040;15.294;2023-07-08T06:56:14;23.70;50.10
65038;DHT22;51605;47.040;15.294;2023-07-08T06:58:40;23.70;50.20
65038;DHT22;51605;47.040;15.294;2023-07-08T07:01:05;23.70;50.10
65038;DHT22;51605;47.040;15.294;2023-07-08T07:03:31;23.70;50.10
65038;DHT22;51605;47.040;15.294;2023-07-08T07:05:56;23.70;50.10
65038;DHT22;51605;47.040;15.294;2023-07-08T07:08:22;23.70;50.10
65038;DHT22;51605;47.040;15.294;2023-07-08T07:10:48;23.70;50.20
65038;DHT22;51605;47.040;15.294;2023-07-08T07:13:14;23.70;50.10
65038;DHT22;51605;47.040;15.294;2023-07-08T07:15:40;23.70;50.10
65038;DHT22;51605;47.040;15.294;2023-07-08T07:18:05;23.70;50.20
65038;DHT22;51605;47.040;15.294;2023-07-08T07:20:32;23.70;50.20
65038;DHT22;51605;47.040;15.294;2023-07-08T07:22:58;23.70;50.20
65038;DHT22;51605;47.040;15.294;2023-07-08T07:25:23;23.70;50.10
65038;DHT22;51605;47.040;15.294;2023-07-08T07:27:49;23.70;50.10
65038;DHT22;51605;47.040;15.294;2023-07-08T07:30:15;23.70;50.10
65038;DHT22;51605;47.040;15.294;2023-07-08T07:32:42;23.70;50.20
65038;DHT22;51605;47.040;15.294;2023-07-08T07:35:11;23.70;50.20
65038;DHT22;51605;47.040;15.294;2023-07-08T07:37:39;23.70;50.20
65038;DHT22;51605;47.040;15.294;2023-07-08T07:40:09;23.70;50.20
65038;DHT22;51605;47.040;15.294;2023-07-08T07:42:40;23.70;50.30
65038;DHT22;51605;47.040;15.294;2023-07-08T07:45:06;23.70;50.10
65038;DHT22;51605;47.040;15.294;2023-07-08T07:47:32;23.70;50.20
65038;DHT22;51605;47.040;15.294;2023-07-08T07:49:58;23.70;50.30
65038;DHT22;51605;47.040;15.294;2023-07-08T07:52:24;23.70;50.30
65038;DHT22;51605;47.040;15.294;2023-07-08T07:54:54;23.70;50.30
65038;DHT22;51605;47.040;15.294;2023-07-08T07:57:21;23.70;50.40
65038;DHT22;51605;47.040;15.294;2023-07-08T07:59:47;23.70;50.30
65038;DHT22;51605;47.040;15.294;2023-07-08T08:02:14;23.70;50.40
65038;DHT22;51605;47.040;15.294;2023-07-08T08:04:40;23.70;50.20
65038;DHT22;51605;47.040;15.294;2023-07-08T08:07:06;23.70;50.30
65038;DHT22;51605;47.040;15.294;2023-07-08T08:09:31;23.70;50.60
65038;DHT22;51605;47.040;15.294;2023-07-08T08:11:57;23.70;50.30
65038;DHT22;51605;47.040;15.294;2023-07-08T08:14:22;23.70;50.30
65038;DHT22;51605;47.040;15.294;2023-07-08T08:16:48;23.70;50.30
65038;DHT22;51605;47.040;15.294;2023-07-08T08:19:14;23.70;50.40
65038;DHT22;51605;47.040;15.294;2023-07-08T08:21:39;23.70;50.30
65038;DHT22;51605;47.040;15.294;2023-07-08T08:24:05;23.70;50.30
65038;DHT22;51605;47.040;15.294;2023-07-08T08:26:31;23.70;50.40
65038;DHT22;51605;47.040;15.294;2023-07-08T08:28:57;23.70;50.30
65038;DHT22;51605;47.040;15.294;2023-07-08T08:31:22;23.70;50.30
65038;DHT22;51605;47.040;15.294;2023-07-08T08:33:48;23.70;50.30
65038;DHT22;51605;47.040;15.294;2023-07-08T08:36:15;23.70;50.30
65038;DHT22;51605;47.040;15.294;2023-07-08T08:38:40;23.70;50.30
65038;DHT22;51605;47.040;15.294;2023-07-08T08:41:12;23.70;50.30
65038;DHT22;51605;47.040;15.294;2023-07-08T08:43:39;23.70;50.30
65038;DHT22;51605;47.040;15.294;2023-07-08T08:46:14;23.70;50.30
65038;DHT22;51605;47.040;15.294;2023-07-08T08:51:30;23.70;50.40
65038;DHT22;51605;47.040;15.294;2023-07-08T08:53:57;23.70;50.30
65038;DHT22;51605;47.040;15.294;2023-07-08T09:02:36;23.70;50.30
65038;DHT22;51605;47.040;15.294;2023-07-08T09:05:08;23.70;50.40
65038;DHT22;51605;47.040;15.294;2023-07-08T09:11:07;23.70;50.40
65038;DHT22;51605;47.040;15.294;2023-07-08T09:13:36;23.70;50.40
65038;DHT22;51605;47.040;15.294;2023-07-08T09:18:36;23.50;50.00
65038;DHT22;51605;47.040;15.294;2023-07-08T09:21:15;23.40;49.50
65038;DHT22;51605;47.040;15.294;2023-07-08T09:23:44;23.30;49.10
65038;DHT22;51605;47.040;15.294;2023-07-08T09:26:17;23.30;48.90
65038;DHT22;51605;47.040;15.294;2023-07-08T09:28:45;23.30;48.50
65038;DHT22;51605;47.040;15.294;2023-07-08T09:31:37;23.30;50.70
65038;DHT22;51605;47.040;15.294;2023-07-08T09:34:11;23.30;49.90
65038;DHT22;51605;47.040;15.294;2023-07-08T09:36:40;23.40;49.80
65038;DHT22;51605;47.040;15.294;2023-07-08T09:39:10;23.40;49.80
65038;DHT22;51605;47.040;15.294;2023-07-08T09:41:38;23.50;49.90
65038;DHT22;51605;47.040;15.294;2023-07-08T09:46:38;23.60;49.80
65038;DHT22;51605;47.040;15.294;2023-07-08T09:49:28;23.60;49.70
65038;DHT22;51605;47.040;15.294;2023-07-08T09:51:54;23.60;49.70
65038;DHT22;51605;47.040;15.294;2023-07-08T09:54:22;23.60;49.60
65038;DHT22;51605;47.040;15.294;2023-07-08T09:57:21;23.70;49.80
65038;DHT22;51605;47.040;15.294;2023-07-08T09:59:52;23.60;49.80
65038;DHT22;51605;47.040;15.294;2023-07-08T10:04:54;23.70;49.70
65038;DHT22;51605;47.040;15.294;2023-07-08T10:07:20;23.60;49.70
65038;DHT22;51605;47.040;15.294;2023-07-08T10:09:48;23.60;49.80
65038;DHT22;51605;47.040;15.294;2023-07-08T10:12:16;23.60;49.90
65038;DHT22;51605;47.040;15.294;2023-07-08T10:14:49;23.60;49.80
65038;DHT22;51605;47.040;15.294;2023-07-08T10:17:17;23.60;49.90
65038;DHT22;51605;47.040;15.294;2023-07-08T10:19:44;23.60;49.90
65038;DHT22;51605;47.040;15.294;2023-07-08T10:25:43;23.60;50.00
65038;DHT22;51605;47.040;15.294;2023-07-08T10:31:02;23.60;50.30
65038;DHT22;51605;47.040;15.294;2023-07-08T10:39:45;23.60;50.70
65038;DHT22;51605;47.040;15.294;2023-07-08T10:53:17;23.60;50.70
65038;DHT22;51605;47.040;15.294;2023-07-08T10:55:55;23.60;50.70
65038;DHT22;51605;47.040;15.294;2023-07-08T11:04:12;23.60;50.70
65038;DHT22;51605;47.040;15.294;2023-07-08T11:06:58;23.60;50.70
65038;DHT22;51605;47.040;15.294;2023-07-08T11:09:53;23.60;50.70
65038;DHT22;51605;47.040;15.294;2023-07-08T11:12:40;23.60;50.70
65038;DHT22;51605;47.040;15.294;2023-07-08T11:15:27;23.60;50.70
65038;DHT22;51605;47.040;15.294;2023-07-08T11:18:06;23.60;50.70
65038;DHT22;51605;47.040;15.294;2023-07-08T11:20:39;23.60;50.70
65038;DHT22;51605;47.040;15.294;2023-07-08T11:28:40;23.60;50.70
65038;DHT22;51605;47.040;15.294;2023-07-08T11:31:06;23.60;50.70
65038;DHT22;51605;47.040;15.294;2023-07-08T11:33:33;23.60;50.70
65038;DHT22;51605;47.040;15.294;2023-07-08T11:36:01;23.60;50.70
65038;DHT22;51605;47.040;15.294;2023-07-08T11:38:28;23.60;50.70
65038;DHT22;51605;47.040;15.294;2023-07-08T11:41:11;23.60;50.70
65038;DHT22;51605;47.040;15.294;2023-07-08T11:43:48;23.60;50.70
65038;DHT22;51605;47.040;15.294;2023-07-08T11:46:20;23.60;50.70
65038;DHT22;51605;47.040;15.294;2023-07-08T11:48:48;23.60;50.70
65038;DHT22;51605;47.040;15.294;2023-07-08T11:51:45;23.60;50.70
65038;DHT22;51605;47.040;15.294;2023-07-08T11:54:27;23.60;50.70
65038;DHT22;51605;47.040;15.294;2023-07-08T11:59:24;23.60;51.10
65038;DHT22;51605;47.040;15.294;2023-07-08T12:02:01;23.60;50.70
65038;DHT22;51605;47.040;15.294;2023-07-08T12:04:31;23.60;50.70
65038;DHT22;51605;47.040;15.294;2023-07-08T12:07:12;23.60;50.70
65038;DHT22;51605;47.040;15.294;2023-07-08T12:10:03;23.60;50.70
65038;DHT22;51605;47.040;15.294;2023-07-08T12:12:37;23.60;50.70
65038;DHT22;51605;47.040;15.294;2023-07-08T12:18:13;23.60;50.70
65038;DHT22;51605;47.040;15.294;2023-07-08T12:20:43;23.60;50.70
65038;DHT22;51605;47.040;15.294;2023-07-08T12:23:20;23.60;50.70
65038;DHT22;51605;47.040;15.294;2023-07-08T12:25:46;23.60;50.70
65038;DHT22;51605;47.040;15.294;2023-07-08T12:28:12;23.60;50.70
65038;DHT22;51605;47.040;15.294;2023-07-08T12:30:39;23.60;50.70
65038;DHT22;51605;47.040;15.294;2023-07-08T12:33:11;23.60;50.80
65038;DHT22;51605;47.040;15.294;2023-07-08T12:35:38;23.60;50.70
65038;DHT22;51605;47.040;15.294;2023-07-08T12:38:15;23.60;50.70
65038;DHT22;51605;47.040;15.294;2023-07-08T12:40:43;23.60;50.70
65038;DHT22;51605;47.040;15.294;2023-07-08T12:43:12;23.60;50.70
65038;DHT22;51605;47.040;15.294;2023-07-08T12:45:38;23.60;50.70
65038;DHT22;51605;47.040;15.294;2023-07-08T12:48:04;23.60;50.70
65038;DHT22;51605;47.040;15.294;2023-07-08T12:50:30;23.60;50.70
65038;DHT22;51605;47.040;15.294;2023-07-08T12:52:55;23.60;50.70
65038;DHT22;51605;47.040;15.294;2023-07-08T12:55:28;23.60;50.70
65038;DHT22;51605;47.040;15.294;2023-07-08T12:57:54;23.60;50.70
65038;DHT22;51605;47.040;15.294;2023-07-08T13:00:32;23.60;50.70
65038;DHT22;51605;47.040;15.294;2023-07-08T13:03:13;23.60;50.70
65038;DHT22;51605;47.040;15.294;2023-07-08T13:05:41;23.60;50.70
65038;DHT22;51605;47.040;15.294;2023-07-08T13:08:12;23.60;50.70
65038;DHT22;51605;47.040;15.294;2023-07-08T13:10:38;23.60;50.70
65038;DHT22;51605;47.040;15.294;2023-07-08T13:13:06;23.60;50.70
65038;DHT22;51605;47.040;15.294;2023-07-08T13:15:37;23.60;50.70
65038;DHT22;51605;47.040;15.294;2023-07-08T13:18:05;23.60;51.70
65038;DHT22;51605;47.040;15.294;2023-07-08T13:20:34;23.60;50.80
65038;DHT22;51605;47.040;15.294;2023-07-08T13:23:01;23.60;50.80
65038;DHT22;51605;47.040;15.294;2023-07-08T13:25:30;23.60;50.90
65038;DHT22;51605;47.040;15.294;2023-07-08T13:28:02;23.60;50.80
65038;DHT22;51605;47.040;15.294;2023-07-08T13:30:37;23.60;50.80
65038;DHT22;51605;47.040;15.294;2023-07-08T13:33:03;23.60;50.70
65038;DHT22;51605;47.040;15.294;2023-07-08T13:35:36;23.60;50.80
65038;DHT22;51605;47.040;15.294;2023-07-08T13:38:03;23.60;50.70
65038;DHT22;51605;47.040;15.294;2023-07-08T13:40:29;23.60;50.70
65038;DHT22;51605;47.040;15.294;2023-07-08T13:42:56;23.60;50.70
65038;DHT22;51605;47.040;15.294;2023-07-08T13:45:30;23.60;50.70
65038;DHT22;51605;47.040;15.294;2023-07-08T13:50:42;23.60;50.70
65038;DHT22;51605;47.040;15.294;2023-07-08T13:53:25;23.60;50.70
65038;DHT22;51605;47.040;15.294;2023-07-08T13:56:00;23.60;50.70
65038;DHT22;51605;47.040;15.294;2023-07-08T13:58:28;23.60;50.70
65038;DHT22;51605;47.040;15.294;2023-07-08T14:00:55;23.60;50.70
65038;DHT22;51605;47.040;15.294;2023-07-08T14:03:21;23.60;50.70
65038;DHT22;51605;47.040;15.294;2023-07-08T14:05:47;23.60;50.70
65038;DHT22;51605;47.040;15.294;2023-07-08T14:08:14;23.60;50.70
65038;DHT22;51605;47.040;15.294;2023-07-08T14:10:40;23.60;50.70
65038;DHT22;51605;47.040;15.294;2023-07-08T14:13:06;23.60;50.80
65038;DHT22;51605;47.040;15.294;2023-07-08T14:15:32;23.60;50.70
65038;DHT22;51605;47.040;15.294;2023-07-08T14:18:00;23.60;50.80
65038;DHT22;51605;47.040;15.294;2023-07-08T14:20:26;23.60;50.70
65038;DHT22;51605;47.040;15.294;2023-07-08T14:22:55;23.60;50.70
65038;DHT22;51605;47.040;15.294;2023-07-08T14:25:21;23.60;50.70
65038;DHT22;51605;47.040;15.294;2023-07-08T14:27:49;23.60;50.70
65038;DHT22;51605;47.040;15.294;2023-07-08T14:30:15;23.60;50.70
65038;DHT22;51605;47.040;15.294;2023-07-08T14:32:41;23.60;50.70
65038;DHT22;51605;47.040;15.294;2023-07-08T14:35:26;23.60;50.70
65038;DHT22;51605;47.040;15.294;2023-07-08T14:37:52;23.60;50.70
65038;DHT22;51605;47.040;15.294;2023-07-08T14:40:36;23.60;50.70
65038;DHT22;51605;47.040;15.294;2023-07-08T14:43:06;23.60;50.70
65038;DHT22;51605;47.040;15.294;2023-07-08T14:45:40;23.60;50.70
65038;DHT22;51605;47.040;15.294;2023-07-08T14:48:10;23.60;50.70
65038;DHT22;51605;47.040;15.294;2023-07-08T14:50:36;23.60;50.70
65038;DHT22;51605;47.040;15.294;2023-07-08T14:53:02;23.60;50.70
65038;DHT22;51605;47.040;15.294;2023-07-08T14:55:28;23.60;50.70
65038;DHT22;51605;47.040;15.294;2023-07-08T14:57:54;23.60;50.70
65038;DHT22;51605;47.040;15.294;2023-07-08T15:00:22;23.60;50.70
65038;DHT22;51605;47.040;15.294;2023-07-08T15:02:49;23.60;50.70
65038;DHT22;51605;47.040;15.294;2023-07-08T15:05:25;23.60;50.70
65038;DHT22;51605;47.040;15.294;2023-07-08T15:07:54;23.60;50.70
65038;DHT22;51605;47.040;15.294;2023-07-08T15:10:22;23.60;50.70
65038;DHT22;51605;47.040;15.294;2023-07-08T15:12:49;23.60;50.70
65038;DHT22;51605;47.040;15.294;2023-07-08T15:17:53;23.60;50.70
65038;DHT22;51605;47.040;15.294;2023-07-08T15:20:19;23.60;50.70
65038;DHT22;51605;47.040;15.294;2023-07-08T15:22:45;23.60;50.70
65038;DHT22;51605;47.040;15.294;2023-07-08T15:25:13;23.60;50.70
65038;DHT22;51605;47.040;15.294;2023-07-08T15:27:41;23.60;50.70
65038;DHT22;51605;47.040;15.294;2023-07-08T15:30:18;23.60;50.70
65038;DHT22;51605;47.040;15.294;2023-07-08T15:32:45;23.60;50.70
65038;DHT22;51605;47.040;15.294;2023-07-08T15:35:18;23.60;50.70
65038;DHT22;51605;47.040;15.294;2023-07-08T15:37:44;23.60;50.70
65038;DHT22;51605;47.040;15.294;2023-07-08T15:40:16;23.60;50.70
65038;DHT22;51605;47.040;15.294;2023-07-08T15:42:43;23.60;50.70
65038;DHT22;51605;47.040;15.294;2023-07-08T15:45:25;23.60;50.70
65038;DHT22;51605;47.040;15.294;2023-07-08T15:47:51;23.60;50.70
65038;DHT22;51605;47.040;15.294;2023-07-08T15:50:19;23.60;50.70
65038;DHT22;51605;47.040;15.294;2023-07-08T15:52:45;23.60;50.70
65038;DHT22;51605;47.040;15.294;2023-07-08T15:55:13;23.60;50.70
65038;DHT22;51605;47.040;15.294;2023-07-08T15:57:48;23.60;50.70
65038;DHT22;51605;47.040;15.294;2023-07-08T16:00:20;23.60;50.70
65038;DHT22;51605;47.040;15.294;2023-07-08T16:02:52;23.60;50.70
65038;DHT22;51605;47.040;15.294;2023-07-08T16:05:19;23.60;51.60
65038;DHT22;51605;47.040;15.294;2023-07-08T16:07:46;23.60;50.70
65038;DHT22;51605;47.040;15.294;2023-07-08T16:10:12;23.60;50.70
65038;DHT22;51605;47.040;15.294;2023-07-08T16:12:38;23.60;50.70
65038;DHT22;51605;47.040;15.294;2023-07-08T16:15:07;23.60;50.70
65038;DHT22;51605;47.040;15.294;2023-07-08T16:17:36;23.60;50.70
65038;DHT22;51605;47.040;15.294;2023-07-08T16:20:04;23.60;50.70
65038;DHT22;51605;47.040;15.294;2023-07-08T16:22:34;23.60;50.70
65038;DHT22;51605;47.040;15.294;2023-07-08T16:24:59;23.60;50.70
65038;DHT22;51605;47.040;15.294;2023-07-08T16:27:25;23.60;50.70
65038;DHT22;51605;47.040;15.294;2023-07-08T16:29:51;23.60;50.70
65038;DHT22;51605;47.040;15.294;2023-07-08T16:32:16;23.60;50.70
65038;DHT22;51605;47.040;15.294;2023-07-08T16:34:42;23.60;50.70
65038;DHT22;51605;47.040;15.294;2023-07-08T16:37:08;23.60;50.70
65038;DHT22;51605;47.040;15.294;2023-07-08T16:39:33;23.60;50.70
65038;DHT22;51605;47.040;15.294;2023-07-08T16:41:59;23.60;50.70